Time;durP1;ratioP1;P1;durP2;ratioP2;P2;SDS_P1;SDS_P2;PMS_P1;PMS_P2;Temp;Humidity;BMP_temperature;BMP_pressure;BME280_temperature;BME280_humidity;BME280_pressure;Samples;Min_cycle;Max_cycle;Signal;HPM_P1;HPM_P2
2021/10/03 02:46:08;;;;;;;42.53;30.08;;;13.60;99.30;;;;;;5378736;24;20312;-84
2021/10/03 02:48:39;;;;;;;44.50;29.40;;;13.60;99.20;;;;;;4748864;30;20199;-83
2021/10/03 02:51:06;;;;;;;51.38;30.40;;;13.50;99.20;;;;;;4748661;30;20051;-84
2021/10/03 02:53:32;;;;;;;45.72;30.42;;;13.60;99.20;;;;;;4748909;30;20054;-83
2021/10/03 02:55:58;;;;;;;48.15;28.75;;;13.60;99.20;;;;;;4763718;30;20087;-83
2021/10/03 02:58:24;;;;;;;45.03;27.58;;;13.60;99.10;;;;;;4734709;30;20232;-83
2021/10/03 03:00:52;;;;;;;48.30;28.35;;;13.60;99.10;;;;;;4734161;30;20032;-83
2021/10/03 03:03:18;;;;;;;39.28;28.20;;;13.60;99.10;;;;;;4734490;30;20324;-84
2021/10/03 03:05:44;;;;;;;45.47;28.77;;;13.50;99.20;;;;;;4749161;30;20032;-83
2021/10/03 03:08:10;;;;;;;44.78;27.33;;;13.50;99.20;;;;;;4734192;30;20123;-83
2021/10/03 03:10:36;;;;;;;44.35;29.15;;;13.50;99.10;;;;;;4734454;30;20028;-83
2021/10/03 03:13:02;;;;;;;49.35;28.77;;;13.40;99.20;;;;;;4734314;30;20231;-83
2021/10/03 03:15:28;;;;;;;52.10;28.65;;;13.40;99.10;;;;;;4734290;30;20028;-83
2021/10/03 03:17:54;;;;;;;45.08;28.52;;;13.40;99.20;;;;;;4764511;30;20056;-83
2021/10/03 03:20:20;;;;;;;47.45;28.15;;;13.40;99.20;;;;;;4748554;30;20088;-83
2021/10/03 03:22:46;;;;;;;50.47;29.35;;;13.40;99.40;;;;;;4748318;30;20076;-83
2021/10/03 03:25:14;;;;;;;49.20;30.38;;;13.30;99.40;;;;;;4733769;30;20241;-83
2021/10/03 03:27:41;;;;;;;47.35;29.58;;;13.30;99.50;;;;;;4733165;30;20059;-83
2021/10/03 03:30:08;;;;;;;;;;;13.30;99.50;;;;;;4733957;30;20070;-83
2021/10/03 03:32:33;;;;;;;49.90;28.50;;;13.20;99.60;;;;;;4748471;30;19910;-82
2021/10/03 03:35:00;;;;;;;43.90;30.02;;;13.20;99.70;;;;;;4748112;30;20116;-83
2021/10/03 03:37:26;;;;;;;49.58;30.10;;;13.20;99.60;;;;;;4748378;30;20028;-83
2021/10/03 03:39:52;;;;;;;43.25;30.27;;;13.20;99.70;;;;;;4764215;30;20062;-83
2021/10/03 03:42:17;;;;;;;49.45;32.25;;;13.20;99.90;;;;;;4748239;30;20032;-82
2021/10/03 03:44:43;;;;;;;49.28;32.38;;;13.20;99.80;;;;;;4734025;30;20047;-83
2021/10/03 03:47:09;;;;;;;45.95;29.40;;;13.20;99.80;;;;;;4744488;30;20078;-82
2021/10/03 03:49:35;;;;;;;54.63;31.60;;;13.10;99.80;;;;;;4765882;30;20039;-82
2021/10/03 03:52:00;;;;;;;54.50;31.55;;;13.20;99.80;;;;;;4765771;30;20046;-83
2021/10/03 03:54:26;;;;;;;44.75;30.45;;;13.20;99.90;;;;;;4765627;30;20085;-83
2021/10/03 03:56:52;;;;;;;52.25;31.13;;;13.10;99.80;;;;;;4765372;30;20109;-82
2021/10/03 03:59:18;;;;;;;52.45;30.77;;;13.10;99.90;;;;;;4765463;30;20038;-83
2021/10/03 04:01:44;;;;;;;47.03;30.55;;;13.10;99.90;;;;;;4765161;30;20098;-83
2021/10/03 04:04:10;;;;;;;49.70;32.67;;;13.10;99.80;;;;;;4765264;30;20032;-83
2021/10/03 04:06:36;;;;;;;53.70;32.63;;;13.00;99.90;;;;;;4781228;30;20028;-83
2021/10/03 04:09:02;;;;;;;61.22;34.53;;;13.00;99.90;;;;;;4765087;30;20299;-82
2021/10/03 04:11:28;;;;;;;50.20;32.13;;;13.00;99.90;;;;;;4781166;30;20346;-82
2021/10/03 04:13:54;;;;;;;55.05;34.03;;;13.00;99.90;;;;;;4765525;30;20086;-82
2021/10/03 04:16:20;;;;;;;62.05;34.15;;;13.00;99.90;;;;;;4764997;30;20354;-82
2021/10/03 04:18:45;;;;;;;54.47;33.85;;;13.00;99.90;;;;;;4765026;30;20331;-82
2021/10/03 04:21:11;;;;;;;55.55;33.42;;;13.00;99.90;;;;;;4764791;30;20047;-82
2021/10/03 04:23:37;;;;;;;55.95;33.97;;;13.00;99.90;;;;;;4765030;30;20035;-82
2021/10/03 04:26:03;;;;;;;49.33;32.78;;;13.10;99.90;;;;;;4765160;30;20032;-82
2021/10/03 04:28:29;;;;;;;55.47;33.85;;;13.20;99.90;;;;;;4764885;30;20066;-82
2021/10/03 04:30:55;;;;;;;53.15;33.78;;;13.20;99.90;;;;;;4764971;30;20050;-82
2021/10/03 04:33:21;;;;;;;57.60;33.80;;;13.20;99.90;;;;;;4764883;30;20091;-82
2021/10/03 04:35:47;;;;;;;53.45;32.90;;;13.20;99.90;;;;;;4764675;30;20039;-82
2021/10/03 04:38:12;;;;;;;55.30;33.97;;;13.30;99.90;;;;;;4750226;30;20043;-82
2021/10/03 04:40:39;;;;;;;54.38;33.70;;;13.30;99.90;;;;;;4764417;30;20039;-82
2021/10/03 04:43:04;;;;;;;58.03;35.67;;;13.40;99.90;;;;;;4750064;30;20054;-82
2021/10/03 04:45:30;;;;;;;49.35;32.47;;;13.40;99.90;;;;;;4764535;30;20063;-82
2021/10/03 04:48:00;;;;;;;50.10;32.38;;;13.40;99.90;;;;;;4764893;30;20039;-82
2021/10/03 04:50:26;;;;;;;49.05;31.70;;;13.50;99.90;;;;;;4765084;30;20365;-82
2021/10/03 04:52:52;;;;;;;56.35;33.25;;;13.50;99.90;;;;;;4750344;30;20044;-82
2021/10/03 04:55:18;;;;;;;50.97;33.00;;;13.40;99.90;;;;;;4764886;30;20042;-82
2021/10/03 04:57:44;;;;;;;54.70;33.65;;;13.40;99.90;;;;;;4750267;30;20032;-82
2021/10/03 05:00:11;;;;;;;53.45;31.40;;;13.50;99.90;;;;;;4750047;30;20031;-82
2021/10/03 05:02:37;;;;;;;52.22;33.03;;;13.50;99.90;;;;;;4780540;30;20070;-82
2021/10/03 05:05:03;;;;;;;51.65;32.63;;;13.50;99.90;;;;;;4750483;30;20380;-82
2021/10/03 05:07:29;;;;;;;52.03;33.70;;;13.50;99.90;;;;;;4750310;30;20051;-83
2021/10/03 05:09:55;;;;;;;60.80;32.83;;;13.50;99.90;;;;;;4780448;30;20035;-83
2021/10/03 05:12:20;;;;;;;49.88;32.80;;;13.50;99.90;;;;;;4750225;30;20063;-82
2021/10/03 05:14:46;;;;;;;50.22;32.10;;;13.50;99.90;;;;;;4750508;30;20031;-83
2021/10/03 05:17:12;;;;;;;56.55;33.22;;;13.50;99.90;;;;;;4764486;30;20081;-82
2021/10/03 05:19:38;;;;;;;49.70;32.75;;;13.50;99.90;;;;;;4764633;30;20036;-83
2021/10/03 05:22:05;;;;;;;55.42;32.70;;;13.60;99.90;;;;;;4764573;30;20110;-83
2021/10/03 05:24:32;;;;;;;52.55;31.70;;;13.60;99.90;;;;;;4749886;30;20031;-83
2021/10/03 05:26:59;;;;;;;61.08;33.65;;;13.60;99.90;;;;;;4750001;30;20107;-82
2021/10/03 05:29:24;;;;;;;;;;;13.70;99.90;;;;;;4747474;30;20036;-82
2021/10/03 05:31:51;;;;;;;60.43;31.60;;;13.80;99.90;;;;;;4778832;30;19920;-83
2021/10/03 05:34:17;;;;;;;49.75;32.35;;;13.80;99.90;;;;;;4764703;30;20035;-82
2021/10/03 05:36:43;;;;;;;50.63;31.70;;;13.80;99.80;;;;;;4764292;30;20524;-82
2021/10/03 05:39:09;;;;;;;52.70;31.92;;;13.80;99.80;;;;;;4764250;30;20055;-83
2021/10/03 05:41:34;;;;;;;53.60;32.88;;;13.90;99.80;;;;;;4751615;30;20036;-83
2021/10/03 05:44:00;;;;;;;48.70;30.55;;;13.80;99.90;;;;;;4749005;30;20028;-82
2021/10/03 05:46:26;;;;;;;48.78;32.17;;;13.90;99.90;;;;;;4761443;30;20116;-82
2021/10/03 05:48:52;;;;;;;53.13;33.05;;;13.90;99.80;;;;;;4764166;30;20315;-82
2021/10/03 05:51:18;;;;;;;53.55;33.75;;;13.90;99.90;;;;;;4750148;30;20047;-82
2021/10/03 05:53:44;;;;;;;53.13;31.85;;;14.00;99.90;;;;;;4752791;30;20357;-83
2021/10/03 05:56:10;;;;;;;51.35;32.80;;;13.90;99.80;;;;;;4752421;30;20043;-83
2021/10/03 05:58:35;;;;;;;50.10;31.67;;;14.00;99.90;;;;;;4767210;30;20103;-83
2021/10/03 06:01:01;;;;;;;54.35;33.55;;;14.00;99.90;;;;;;4767449;30;20043;-83
2021/10/03 06:03:27;;;;;;;62.45;33.22;;;14.00;99.90;;;;;;4767470;30;20020;-82
2021/10/03 06:05:53;;;;;;;54.05;33.17;;;14.10;99.90;;;;;;4752588;30;20382;-83
2021/10/03 06:08:19;;;;;;;54.10;32.58;;;14.00;99.90;;;;;;4752927;30;20032;-83
2021/10/03 06:10:45;;;;;;;58.28;32.95;;;14.00;99.90;;;;;;4752863;30;20027;-83
2021/10/03 06:13:11;;;;;;;45.95;32.38;;;14.10;99.90;;;;;;4752958;30;20220;-83
2021/10/03 06:15:43;;;;;;;52.33;32.40;;;14.10;99.90;;;;;;4767153;30;20039;-82
2021/10/03 06:18:13;;;;;;;50.65;32.25;;;14.20;99.90;;;;;;4773127;30;20028;-82
2021/10/03 06:20:39;;;;;;;52.72;32.15;;;14.20;99.90;;;;;;4766615;30;20043;-83
2021/10/03 06:23:05;;;;;;;49.20;32.15;;;14.30;99.80;;;;;;4752369;30;20031;-82
2021/10/03 06:25:31;;;;;;;52.25;34.33;;;14.30;99.80;;;;;;4766719;30;20315;-83
2021/10/03 06:27:56;;;;;;;58.50;34.53;;;14.40;99.80;;;;;;4782709;30;20042;-82
2021/10/03 06:30:23;;;;;;;51.97;32.63;;;14.40;99.70;;;;;;4766680;30;20032;-83
2021/10/03 06:32:49;;;;;;;52.13;32.37;;;14.50;99.60;;;;;;4761840;30;20036;-83
2021/10/03 06:35:14;;;;;;;49.17;32.95;;;14.50;99.50;;;;;;4764513;30;20326;-83
2021/10/03 06:37:40;;;;;;;53.75;32.75;;;14.60;99.50;;;;;;4750361;30;20325;-83
2021/10/03 06:40:07;;;;;;;53.55;31.60;;;14.60;99.30;;;;;;4743066;30;20031;-83
2021/10/03 06:42:33;;;;;;;45.33;32.00;;;14.60;99.30;;;;;;4766417;30;20285;-83
2021/10/03 06:44:58;;;;;;;51.72;32.83;;;14.60;99.30;;;;;;4766354;30;20051;-83
2021/10/03 06:47:24;;;;;;;48.33;32.80;;;14.60;99.30;;;;;;4766031;30;20052;-82
2021/10/03 06:49:50;;;;;;;57.03;33.45;;;14.60;99.40;;;;;;4782576;30;20102;-83
2021/10/03 06:52:16;;;;;;;50.20;32.33;;;14.70;99.50;;;;;;4766340;30;20035;-83
2021/10/03 06:54:42;;;;;;;58.70;32.35;;;14.60;99.40;;;;;;4751279;30;20062;-83
2021/10/03 06:57:09;;;;;;;51.10;34.38;;;14.60;99.50;;;;;;4766022;30;20279;-83
2021/10/03 06:59:34;;;;;;;56.15;32.78;;;14.60;99.60;;;;;;4766335;30;20073;-83
2021/10/03 07:02:05;;;;;;;56.78;33.65;;;14.60;99.50;;;;;;4763873;30;20036;-83
2021/10/03 07:04:31;;;;;;;56.55;32.60;;;14.60;99.50;;;;;;4745842;30;20036;-83
2021/10/03 07:06:59;;;;;;;53.83;32.72;;;14.70;99.60;;;;;;4765981;30;20051;-83
2021/10/03 07:09:25;;;;;;;;;;;14.80;99.30;;;;;;4765752;30;20070;-83
2021/10/03 07:11:50;;;;;;;58.63;34.27;;;14.80;99.60;;;;;;4747947;30;19918;-83
2021/10/03 07:14:16;;;;;;;48.63;32.42;;;14.80;99.70;;;;;;4750622;30;20031;-83
2021/10/03 07:16:42;;;;;;;51.03;32.58;;;14.90;99.40;;;;;;4765841;30;20027;-83
2021/10/03 07:19:08;;;;;;;47.72;31.20;;;14.90;99.20;;;;;;4751213;30;20047;-83
2021/10/03 07:21:34;;;;;;;52.08;32.60;;;15.00;98.90;;;;;;4750826;30;20032;-83
2021/10/03 07:24:00;;;;;;;46.30;31.50;;;15.10;98.90;;;;;;4774447;30;20067;-83
2021/10/03 07:26:25;;;;;;;49.17;30.50;;;15.10;98.80;;;;;;4750619;30;20026;-83
2021/10/03 07:28:52;;;;;;;49.78;33.33;;;15.30;98.40;;;;;;4742576;30;20032;-83
2021/10/03 07:31:19;;;;;;;44.88;31.23;;;15.40;98.20;;;;;;4747673;30;20051;-83
2021/10/03 07:33:45;;;;;;;54.17;33.58;;;15.50;98.20;;;;;;4749320;30;20131;-83
2021/10/03 07:36:11;;;;;;;51.25;32.20;;;15.60;98.00;;;;;;4750860;30;20073;-84
2021/10/03 07:38:36;;;;;;;43.13;31.80;;;15.60;98.00;;;;;;4781531;30;20036;-83
2021/10/03 07:41:02;;;;;;;47.90;31.23;;;15.70;97.60;;;;;;4750724;30;20100;-84
2021/10/03 07:43:28;;;;;;;45.17;30.90;;;15.80;97.20;;;;;;4750886;30;20031;-82
2021/10/03 07:45:54;;;;;;;48.13;31.63;;;15.80;96.90;;;;;;4750918;30;20363;-83
2021/10/03 07:48:24;;;;;;;48.80;30.15;;;15.80;97.30;;;;;;4765985;30;20346;-85
2021/10/03 07:50:50;;;;;;;44.22;30.23;;;15.90;97.20;;;;;;4765638;30;20345;-85
2021/10/03 07:53:16;;;;;;;42.85;30.83;;;16.00;96.80;;;;;;4751271;30;20051;-84
2021/10/03 07:55:43;;;;;;;42.65;30.08;;;15.90;97.00;;;;;;4766132;30;20031;-85
2021/10/03 07:58:09;;;;;;;53.38;30.90;;;16.00;97.00;;;;;;4751974;30;20075;-85
2021/10/03 08:00:36;;;;;;;47.10;28.58;;;16.10;96.90;;;;;;4766692;30;20119;-85
2021/10/03 08:03:02;;;;;;;46.95;30.40;;;16.20;96.40;;;;;;4751540;30;20028;-85
2021/10/03 08:05:28;;;;;;;38.65;29.02;;;16.30;96.10;;;;;;4752295;30;20063;-85
2021/10/03 08:07:54;;;;;;;44.05;31.05;;;16.30;96.20;;;;;;4765225;30;20088;-85
2021/10/03 08:10:20;;;;;;;44.95;30.02;;;16.40;96.20;;;;;;4766485;30;20106;-85
2021/10/03 08:12:47;;;;;;;42.63;28.33;;;16.50;95.90;;;;;;4751393;30;20067;-84
2021/10/03 08:15:13;;;;;;;42.00;29.27;;;16.60;95.80;;;;;;4781582;30;20039;-84
2021/10/03 08:17:39;;;;;;;42.85;28.88;;;16.70;95.70;;;;;;4751447;30;20046;-84
2021/10/03 08:20:06;;;;;;;44.45;28.42;;;16.80;95.40;;;;;;4751035;30;20327;-85
2021/10/03 08:22:32;;;;;;;42.45;28.30;;;16.90;95.20;;;;;;4750817;30;20039;-84
2021/10/03 08:24:59;;;;;;;43.72;28.42;;;17.00;94.90;;;;;;4765655;30;20058;-85
2021/10/03 08:27:26;;;;;;;36.78;27.48;;;17.20;95.20;;;;;;4765736;30;20032;-85
2021/10/03 08:29:52;;;;;;;40.58;28.35;;;17.30;94.70;;;;;;4750881;30;20024;-84
2021/10/03 08:32:18;;;;;;;34.05;25.77;;;17.50;94.60;;;;;;4750868;30;20046;-84
2021/10/03 08:34:44;;;;;;;39.10;26.80;;;17.80;94.30;;;;;;4765601;30;20036;-84
2021/10/03 08:37:10;;;;;;;42.78;25.20;;;18.10;93.30;;;;;;4750667;30;20127;-84
2021/10/03 08:39:36;;;;;;;36.90;25.58;;;18.20;93.00;;;;;;4750905;30;20231;-84
2021/10/03 08:42:03;;;;;;;37.90;25.90;;;18.30;92.50;;;;;;4765274;30;20035;-84
2021/10/03 08:44:31;;;;;;;38.05;25.00;;;18.30;92.30;;;;;;4781273;30;20028;-84
2021/10/03 08:46:57;;;;;;;35.50;24.10;;;18.30;92.30;;;;;;4755142;30;20123;-84
2021/10/03 08:49:23;;;;;;;36.65;23.98;;;18.60;92.50;;;;;;4733010;30;20107;-83
2021/10/03 08:51:50;;;;;;;34.40;23.50;;;18.80;91.80;;;;;;4747300;30;20108;-84
2021/10/03 08:54:18;;;;;;;34.20;23.77;;;18.90;91.10;;;;;;4747547;30;20111;-84
2021/10/03 08:56:46;;;;;;;31.85;23.30;;;18.90;90.90;;;;;;4762916;30;20035;-84
2021/10/03 08:59:11;;;;;;;35.25;24.75;;;19.00;90.90;;;;;;4747627;30;20063;-84
2021/10/03 09:01:55;;;;;;;31.02;23.15;;;19.00;90.80;;;;;;4762290;30;20277;-85
2021/10/03 09:04:29;;;;;;;33.45;23.33;;;19.00;90.90;;;;;;4746928;30;20099;-84
2021/10/03 09:07:07;;;;;;;33.50;23.45;;;19.00;91.00;;;;;;4746796;30;20116;-84
2021/10/03 09:09:56;;;;;;;29.60;22.38;;;19.00;91.20;;;;;;4754861;30;20032;-84
2021/10/03 09:12:34;;;;;;;32.60;21.75;;;19.10;91.40;;;;;;4732119;30;20336;-83
2021/10/03 09:15:03;;;;;;;39.00;24.50;;;19.10;91.10;;;;;;4746877;30;20047;-83
2021/10/03 09:17:30;;;;;;;36.17;20.85;;;19.30;90.60;;;;;;4732405;30;20080;-83
2021/10/03 09:20:08;;;;;;;28.13;20.33;;;19.50;90.70;;;;;;4774884;30;20073;-83
2021/10/03 09:22:53;;;;;;;33.80;20.70;;;20.00;90.50;;;;;;4749616;30;20051;-82
2021/10/03 09:25:54;;;;;;;27.60;19.63;;;20.10;87.30;;;;;;4749385;30;20028;-83
2021/10/03 09:28:20;;;;;;;32.75;20.20;;;20.30;86.20;;;;;;4731061;30;20139;-83
2021/10/03 09:31:08;;;;;;;29.98;19.95;;;20.20;87.50;;;;;;4742097;30;20048;-83
2021/10/03 09:33:58;;;;;;;25.25;18.33;;;20.40;86.80;;;;;;4699822;30;20028;-83
2021/10/03 09:36:31;;;;;;;28.13;19.42;;;20.50;85.40;;;;;;4685089;30;20189;-83
2021/10/03 09:39:05;;;;;;;29.05;19.98;;;20.60;85.20;;;;;;4719891;30;20041;-83
2021/10/03 09:41:34;;;;;;;23.67;17.27;;;20.70;84.80;;;;;;4714478;30;20056;-83
2021/10/03 09:44:13;;;;;;;27.23;18.58;;;20.80;84.30;;;;;;4714169;30;20037;-82
2021/10/03 09:46:39;;;;;;;27.02;16.73;;;20.90;84.20;;;;;;4729040;30;20057;-83
2021/10/03 09:49:33;;;;;;;26.85;17.77;;;21.10;84.10;;;;;;4709961;30;20045;-83
2021/10/03 09:51:58;;;;;;;21.52;16.63;;;21.20;82.70;;;;;;4696964;30;20049;-83
2021/10/03 09:54:25;;;;;;;21.10;15.65;;;21.30;83.70;;;;;;4682945;30;20056;-83
2021/10/03 09:56:53;;;;;;;22.42;16.20;;;21.50;81.70;;;;;;4682555;30;20092;-83
2021/10/03 09:59:19;;;;;;;23.15;15.05;;;21.60;80.70;;;;;;4711077;30;20041;-83
2021/10/03 10:01:48;;;;;;;21.33;15.35;;;21.60;79.90;;;;;;4681811;30;20045;-83
2021/10/03 10:04:16;;;;;;;22.23;15.25;;;21.70;79.50;;;;;;4699491;30;20025;-83
2021/10/03 10:06:45;;;;;;;19.45;14.40;;;21.80;80.20;;;;;;4714121;30;20037;-83
2021/10/03 10:09:18;;;;;;;27.33;14.88;;;21.90;80.60;;;;;;4713997;30;20052;-83
2021/10/03 10:11:52;;;;;;;26.77;14.02;;;22.20;78.30;;;;;;4714215;30;20033;-83
2021/10/03 10:14:27;;;;;;;20.05;13.27;;;22.30;77.10;;;;;;4728968;30;20053;-82
2021/10/03 10:16:57;;;;;;;20.63;13.65;;;22.30;75.80;;;;;;4714112;30;20106;-82
2021/10/03 10:19:35;;;;;;;22.80;13.60;;;22.30;75.50;;;;;;4714330;30;20053;-83
2021/10/03 10:22:14;;;;;;;18.00;12.50;;;22.30;75.10;;;;;;4713758;30;20041;-83
2021/10/03 10:24:58;;;;;;;21.38;13.25;;;22.20;74.90;;;;;;4713933;30;20240;-83
2021/10/03 10:27:28;;;;;;;22.73;12.77;;;22.20;75.50;;;;;;4713672;30;20037;-83
2021/10/03 10:29:58;;;;;;;20.30;11.63;;;22.30;76.30;;;;;;4765905;30;20043;-83
2021/10/03 10:32:25;;;;;;;18.60;12.07;;;22.30;74.70;;;;;;4767063;30;20046;-82
2021/10/03 10:35:06;;;;;;;;;;;22.40;74.80;;;;;;4751974;30;20085;-83
2021/10/03 10:37:54;;;;;;;18.92;11.93;;;22.50;74.00;;;;;;4751330;30;20007;-83
2021/10/03 10:40:23;;;;;;;20.40;11.82;;;22.50;72.50;;;;;;4752148;30;20039;-82
2021/10/03 10:43:04;;;;;;;17.20;12.05;;;22.60;73.50;;;;;;4751680;30;20338;-83
2021/10/03 10:45:36;;;;;;;14.57;11.25;;;22.70;74.40;;;;;;4751581;30;20069;-83
2021/10/03 10:48:11;;;;;;;13.95;10.95;;;22.90;71.70;;;;;;4766481;30;20072;-83
2021/10/03 10:50:48;;;;;;;13.90;10.65;;;22.80;72.30;;;;;;4751899;30;20038;-83
2021/10/03 10:53:31;;;;;;;13.68;10.95;;;22.80;71.60;;;;;;4764327;30;20043;-83
2021/10/03 10:56:18;;;;;;;18.13;11.13;;;22.90;72.50;;;;;;4765149;30;20058;-85
2021/10/03 10:58:53;;;;;;;13.15;10.57;;;23.00;72.20;;;;;;4752973;30;20040;-85
2021/10/03 11:01:41;;;;;;;16.70;10.18;;;23.10;71.40;;;;;;4768022;30;20094;-85
2021/10/03 11:04:20;;;;;;;13.52;9.57;;;23.30;70.40;;;;;;4790682;30;20141;-85
2021/10/03 11:06:48;;;;;;;13.38;9.52;;;23.30;70.60;;;;;;4761671;30;20099;-86
2021/10/03 11:09:16;;;;;;;14.93;8.93;;;23.40;70.20;;;;;;4756533;30;20039;-84
2021/10/03 11:12:02;;;;;;;15.00;9.88;;;23.40;69.50;;;;;;4779582;30;20027;-83
2021/10/03 11:14:28;;;;;;;18.08;9.00;;;23.40;69.60;;;;;;4783193;30;20070;-84
2021/10/03 11:17:04;;;;;;;14.32;9.07;;;23.40;68.60;;;;;;4782174;30;20024;-85
2021/10/03 11:19:45;;;;;;;13.43;8.55;;;23.50;69.10;;;;;;4782184;30;20078;-85
2021/10/03 11:22:15;;;;;;;16.23;8.55;;;23.50;69.70;;;;;;4765106;30;20092;-84
2021/10/03 11:24:50;;;;;;;16.23;7.97;;;23.50;68.20;;;;;;4740542;30;20039;-85
2021/10/03 11:27:30;;;;;;;16.35;9.07;;;23.60;68.70;;;;;;4739376;30;20096;-83
2021/10/03 11:29:58;;;;;;;11.77;7.82;;;23.70;68.40;;;;;;4762761;30;20059;-84
2021/10/03 11:32:27;;;;;;;10.25;8.52;;;23.80;68.40;;;;;;4766320;30;20327;-85
2021/10/03 11:35:06;;;;;;;14.60;8.43;;;23.90;68.80;;;;;;4776903;30;20039;-84
2021/10/03 11:37:33;;;;;;;18.83;8.10;;;24.00;68.00;;;;;;4780796;30;20042;-83
2021/10/03 11:40:07;;;;;;;16.63;8.77;;;24.10;67.70;;;;;;4766600;30;20028;-84
2021/10/03 11:42:38;;;;;;;9.63;7.53;;;24.20;66.50;;;;;;4766220;30;20039;-84
2021/10/03 11:45:14;;;;;;;13.73;8.00;;;24.30;66.30;;;;;;4766181;30;20046;-84
2021/10/03 11:47:55;;;;;;;13.20;7.13;;;24.40;67.00;;;;;;4767630;30;20055;-83
2021/10/03 11:50:27;;;;;;;13.38;7.32;;;24.40;65.00;;;;;;4746713;30;20032;-81
2021/10/03 11:53:10;;;;;;;11.75;7.45;;;24.50;65.50;;;;;;4744333;30;20031;-83
2021/10/03 11:55:38;;;;;;;11.60;7.57;;;24.60;64.80;;;;;;4766032;30;20088;-83
2021/10/03 11:58:06;;;;;;;12.05;6.70;;;24.70;64.00;;;;;;4754112;30;20316;-83
2021/10/03 12:00:33;;;;;;;13.55;7.70;;;24.60;63.30;;;;;;4762679;30;20103;-83
2021/10/03 12:03:07;;;;;;;8.70;7.32;;;24.60;64.00;;;;;;4747992;30;20040;-83
2021/10/03 12:05:33;;;;;;;8.82;6.70;;;24.70;64.40;;;;;;4747998;30;20040;-83
2021/10/03 12:08:07;;;;;;;13.57;7.30;;;24.80;63.70;;;;;;4747864;30;20032;-82
2021/10/03 12:10:49;;;;;;;10.73;6.85;;;24.90;63.60;;;;;;4762394;30;20142;-83
2021/10/03 12:13:34;;;;;;;8.55;6.53;;;25.00;62.80;;;;;;4750961;30;20109;-83
2021/10/03 12:16:06;;;;;;;11.43;6.80;;;24.90;62.60;;;;;;4750280;30;20057;-81
2021/10/03 12:18:33;;;;;;;15.63;6.57;;;25.00;62.10;;;;;;4764935;30;20526;-82
2021/10/03 12:21:06;;;;;;;11.32;7.25;;;25.00;63.40;;;;;;4781879;30;20097;-83
2021/10/03 12:23:39;;;;;;;14.93;6.60;;;25.10;63.20;;;;;;4755197;30;20031;-83
2021/10/03 12:26:28;;;;;;;11.13;7.10;;;25.20;62.40;;;;;;4765169;30;20024;-82
2021/10/03 12:29:06;;;;;;;9.10;6.75;;;25.30;62.20;;;;;;4737712;30;20127;-83
2021/10/03 12:31:34;;;;;;;7.03;6.07;;;25.40;61.60;;;;;;4712248;30;20056;-82
2021/10/03 12:34:08;;;;;;;9.23;5.68;;;25.40;62.00;;;;;;4719066;30;20067;-82
2021/10/03 12:36:34;;;;;;;11.85;6.20;;;25.50;61.00;;;;;;4712000;30;20040;-82
2021/10/03 12:39:00;;;;;;;9.05;6.25;;;25.50;59.40;;;;;;4711530;30;20041;-83
2021/10/03 12:41:26;;;;;;;11.57;5.55;;;25.50;59.60;;;;;;4711268;30;20056;-83
2021/10/03 12:43:55;;;;;;;7.78;5.82;;;25.60;59.80;;;;;;4711681;30;20025;-82
2021/10/03 12:46:22;;;;;;;8.70;5.57;;;25.50;59.20;;;;;;4716640;30;20048;-84
2021/10/03 12:48:48;;;;;;;;;;;25.40;60.00;;;;;;4729672;30;20028;-83
2021/10/03 12:51:14;;;;;;;7.30;5.57;;;25.40;60.50;;;;;;4729086;30;19942;-83
2021/10/03 12:53:39;;;;;;;10.65;6.75;;;25.50;60.10;;;;;;4729662;30;20047;-83
2021/10/03 12:56:05;;;;;;;7.05;6.22;;;25.50;59.70;;;;;;4714879;30;20048;-83
2021/10/03 12:58:31;;;;;;;11.57;5.97;;;25.60;59.60;;;;;;4738403;30;20430;-82
2021/10/03 13:00:57;;;;;;;9.65;6.40;;;25.60;59.70;;;;;;4724094;30;20078;-83
2021/10/03 13:03:22;;;;;;;6.63;5.53;;;25.70;58.70;;;;;;4732877;30;20037;-83
2021/10/03 13:05:48;;;;;;;6.65;5.05;;;25.70;58.60;;;;;;4765118;30;20165;-82
2021/10/03 13:08:14;;;;;;;10.57;5.90;;;25.80;58.30;;;;;;4753500;30;20258;-82
2021/10/03 13:10:41;;;;;;;10.00;5.60;;;25.80;59.00;;;;;;4764579;30;20038;-84
2021/10/03 13:13:07;;;;;;;6.97;5.72;;;25.80;58.30;;;;;;4764396;30;20049;-82
2021/10/03 13:15:34;;;;;;;9.15;5.45;;;25.80;58.40;;;;;;4751441;30;20027;-84
2021/10/03 13:17:59;;;;;;;9.13;5.95;;;25.80;57.90;;;;;;4748049;30;20047;-84
2021/10/03 13:20:25;;;;;;;7.90;5.47;;;25.80;57.70;;;;;;4764525;30;20039;-83
2021/10/03 13:22:52;;;;;;;6.68;5.28;;;25.80;58.10;;;;;;4761847;30;20044;-84
2021/10/03 13:25:18;;;;;;;11.63;5.65;;;26.00;58.20;;;;;;4783425;30;20042;-82
2021/10/03 13:27:45;;;;;;;7.50;5.22;;;25.90;58.20;;;;;;4767880;30;20031;-82
2021/10/03 13:30:13;;;;;;;8.18;5.95;;;26.00;58.60;;;;;;4752958;30;20130;-83
2021/10/03 13:32:41;;;;;;;10.43;4.75;;;26.00;58.00;;;;;;4767723;30;20111;-80
2021/10/03 13:35:08;;;;;;;13.50;5.25;;;26.00;57.50;;;;;;4760091;30;20020;-84
2021/10/03 13:37:34;;;;;;;6.53;4.93;;;25.90;57.70;;;;;;4764786;30;20028;-81
2021/10/03 13:40:00;;;;;;;12.27;5.35;;;25.80;58.20;;;;;;4781403;30;20050;-83
2021/10/03 13:42:26;;;;;;;8.25;5.63;;;25.90;57.60;;;;;;4752858;30;20338;-82
2021/10/03 13:44:52;;;;;;;5.80;4.82;;;25.90;57.80;;;;;;4752847;30;20028;-81
2021/10/03 13:47:19;;;;;;;10.60;5.43;;;25.90;58.40;;;;;;4767522;30;20063;-82
2021/10/03 13:49:45;;;;;;;10.20;5.20;;;25.90;57.70;;;;;;4784086;30;20024;-82
2021/10/03 13:52:11;;;;;;;9.43;5.50;;;25.90;57.50;;;;;;4753265;30;20032;-83
2021/10/03 13:54:37;;;;;;;8.20;5.05;;;25.90;57.90;;;;;;4767666;30;20339;-83
2021/10/03 13:57:03;;;;;;;6.93;5.25;;;25.90;57.60;;;;;;4779231;30;20035;-83
2021/10/03 13:59:29;;;;;;;9.52;4.97;;;26.00;57.10;;;;;;4770853;30;20522;-80
2021/10/03 14:01:55;;;;;;;6.25;4.85;;;25.90;58.10;;;;;;4794780;30;20090;-81
2021/10/03 14:04:21;;;;;;;7.78;5.45;;;25.90;57.00;;;;;;4788412;30;20012;-81
2021/10/03 14:06:47;;;;;;;7.65;5.30;;;25.90;56.80;;;;;;4767200;30;21000;-82
2021/10/03 14:09:13;;;;;;;6.00;4.63;;;25.90;56.60;;;;;;4752670;30;20027;-81
2021/10/03 14:11:39;;;;;;;7.50;4.43;;;25.80;56.80;;;;;;4751247;30;20061;-80
2021/10/03 14:14:04;;;;;;;11.23;5.53;;;25.80;56.80;;;;;;4787765;30;20281;-81
2021/10/03 14:16:32;;;;;;;5.85;4.90;;;25.80;57.80;;;;;;4754965;30;20023;-80
2021/10/03 14:18:57;;;;;;;6.53;4.88;;;25.80;58.00;;;;;;4752537;30;20254;-83
2021/10/03 14:21:23;;;;;;;7.07;4.85;;;25.80;58.00;;;;;;4791013;30;20042;-83
2021/10/03 14:23:49;;;;;;;7.95;5.18;;;25.80;58.40;;;;;;4769561;30;20319;-82
2021/10/03 14:26:16;;;;;;;6.20;4.60;;;25.90;58.50;;;;;;4760052;30;20314;-80
2021/10/03 14:28:41;;;;;;;6.75;4.50;;;25.80;58.30;;;;;;4760603;30;20024;-81
2021/10/03 14:31:07;;;;;;;9.35;5.57;;;25.80;58.10;;;;;;4772482;30;20031;-83
2021/10/03 14:33:33;;;;;;;5.47;4.70;;;25.80;58.60;;;;;;4765378;30;20098;-81
2021/10/03 14:36:02;;;;;;;7.93;4.55;;;25.80;58.70;;;;;;4746111;30;20039;-84
2021/10/03 14:38:34;;;;;;;8.57;4.50;;;25.80;58.90;;;;;;4748497;30;20063;-85
2021/10/03 14:41:05;;;;;;;10.65;4.97;;;25.80;58.50;;;;;;4723287;30;20044;-84
2021/10/03 14:43:33;;;;;;;12.57;4.60;;;25.70;59.40;;;;;;4752979;30;20337;-84
2021/10/03 14:46:02;;;;;;;9.25;4.63;;;25.70;59.20;;;;;;4742862;30;20116;-84
2021/10/03 14:48:35;;;;;;;11.60;4.95;;;25.60;59.30;;;;;;4751894;30;20091;-84
2021/10/03 14:51:04;;;;;;;12.55;4.88;;;25.60;59.70;;;;;;4752915;30;20063;-84
2021/10/03 14:53:38;;;;;;;8.85;4.25;;;25.60;59.70;;;;;;4770700;30;20066;-83
2021/10/03 14:56:06;;;;;;;;;;;25.70;59.80;;;;;;4751825;30;20292;-84
2021/10/03 14:58:32;;;;;;;9.73;5.13;;;25.60;59.90;;;;;;4763630;30;19910;-84
2021/10/03 15:00:59;;;;;;;7.85;5.13;;;25.60;60.00;;;;;;4767096;30;20205;-84
2021/10/03 15:03:25;;;;;;;5.95;4.65;;;25.60;60.20;;;;;;4750943;30;20047;-83
2021/10/03 15:05:50;;;;;;;8.75;4.60;;;25.60;60.60;;;;;;4754310;30;20039;-81
2021/10/03 15:08:16;;;;;;;5.95;4.35;;;25.50;60.50;;;;;;4785421;30;20234;-81
2021/10/03 15:10:42;;;;;;;7.18;4.60;;;25.40;60.90;;;;;;4800682;30;20035;-81
2021/10/03 15:13:08;;;;;;;9.18;4.38;;;25.40;61.50;;;;;;4767755;30;20106;-82
2021/10/03 15:15:33;;;;;;;7.93;4.90;;;25.40;61.30;;;;;;4767004;30;20036;-81
2021/10/03 15:17:59;;;;;;;12.77;4.45;;;25.20;61.00;;;;;;4767838;30;20028;-80
2021/10/03 15:20:25;;;;;;;10.20;4.53;;;25.20;61.50;;;;;;4767303;30;20039;-80
2021/10/03 15:22:51;;;;;;;7.57;4.63;;;25.10;61.90;;;;;;4767472;30;20125;-80
2021/10/03 15:25:21;;;;;;;9.90;4.50;;;25.10;62.30;;;;;;4765895;30;20059;-81